Target — 9HA2149 — position and weather

sailwx.info

Track history (hours):
 
Tides and Currents Weather Stations Pressure Air Temp Water Temp Dewpoint Dewpoint Depression Visibility Wind Speed Wind Dir Waves Ship Positions

Target

Last reported at 2015-Jan-27 18:23 UTC. Time now 2015-Jan-28 09:14 UTC.
Position N 58°36' W 006°37'.

Length 250 m; draft 7.9 m.

Type: Tanker. MMSI: 248057000.

Date/timePositionNaut miles runAvg speedWind from/ knotsBaromVisibWave heightAir tempDewpointWater temp
2015-Jan-27 18:23N 58°36' W 006°37'4411.0
2015-Jan-27 14:25N 58°04' W 007°32'135 7.4
2015-Jan-26 20:17N 55°50' W 006°58'6 7.5
2015-Jan-26 19:32N 55°46' W 006°51'9 8.8
2015-Jan-26 18:33N 55°41' W 006°40'1010.5
2015-Jan-26 17:33N 55°33' W 006°27'1110.8
2015-Jan-26 16:33N 55°26' W 006°13'10 9.5
2015-Jan-26 15:33N 55°21' W 005°59'9 8.9
2015-Jan-26 14:33N 55°14' W 005°50'9 8.9
2015-Jan-26 13:33N 55°06' W 005°40'12 9.2
2015-Jan-26 12:18N 54°57' W 005°29'7 9.1
2015-Jan-26 11:33N 54°51' W 005°22'1010.1
2015-Jan-26 10:33N 54°43' W 005°12'1111.2
2015-Jan-26 09:33N 54°33' W 005°04'1212.4
2015-Jan-26 08:33N 54°21' W 005°01'1312.5
2015-Jan-26 07:30N 54°08' W 004°57'4711.8
2015-Jan-26 03:31N 53°38' W 003°56'1711.6
2015-Jan-26 02:05N 53°33' W 003°29'611.3
2015-Jan-26 01:33N 53°32' W 003°19'8 8.4
2015-Jan-26 00:33N 53°30' W 003°05'5 4.6
2015-Jan-25 23:32N 53°26' W 003°01'3 2.9
2015-Jan-25 22:32N 53°23' W 003°00'0 0.0
2015-Jan-25 20:26N 53°23' W 003°00'0 0.0
2015-Jan-25 19:08N 53°23' W 003°00'0 0.0
2015-Jan-25 18:20N 53°23' W 003°00'0 0.0
2015-Jan-25 17:32N 53°23' W 003°00'0 0.0
2015-Jan-25 15:26N 53°23' W 003°00'0 0.0
2015-Jan-25 14:32N 53°23' W 003°00'0 0.0
2015-Jan-25 13:32N 53°23' W 003°00'0 0.0
2015-Jan-25 12:26N 53°23' W 003°00'0 0.0
2015-Jan-25 11:14N 53°23' W 003°00'0 0.0
2015-Jan-25 09:20N 53°23' W 003°00'0 0.0
2015-Jan-25 08:26N 53°23' W 003°00'0 0.0
2015-Jan-25 07:08N 53°23' W 003°00'0 0.0
2015-Jan-25 06:26N 53°23' W 003°00'0 0.0
2015-Jan-25 03:32N 53°23' W 003°00'0 0.0
2015-Jan-25 02:32N 53°23' W 003°00'0 0.0
2015-Jan-25 01:32N 53°23' W 003°00'0 0.0
2015-Jan-25 00:20N 53°23' W 003°00'0 0.0
2015-Jan-24 23:14N 53°23' W 003°00'0 0.0
2015-Jan-24 22:20N 53°23' W 003°00'0 0.0
2015-Jan-24 19:20N 53°23' W 003°00'0 0.0
2015-Jan-24 18:26N 53°23' W 003°00'0 0.0
2015-Jan-24 17:14N 53°23' W 003°00'0 0.0
2015-Jan-24 16:14N 53°23' W 003°00'0 0.0
2015-Jan-24 15:14N 53°23' W 003°00'0 0.0
2015-Jan-24 14:20N 53°23' W 003°00'0 0.0
2015-Jan-24 13:32N 53°23' W 003°00'0 0.0
2015-Jan-24 12:32N 53°23' W 003°00'0 0.0
2015-Jan-24 10:32N 53°23' W 003°00'0 0.0
2015-Jan-24 09:08N 53°23' W 003°00'0 0.0
2015-Jan-24 08:26N 53°23' W 003°00'0 0.0
2015-Jan-24 07:32N 53°23' W 003°00'0 0.0
2015-Jan-24 06:32N 53°23' W 003°00'0 0.0
2015-Jan-24 05:26N 53°23' W 003°00'0 0.0
2015-Jan-24 04:32N 53°23' W 003°00'0 0.0
2015-Jan-24 03:26N 53°23' W 003°00'0 0.0
2015-Jan-24 02:26N 53°23' W 003°00'0 0.0
2015-Jan-24 01:32N 53°23' W 003°00'0 0.0
2015-Jan-24 00:32N 53°23' W 003°00'0 0.0
2015-Jan-23 22:08N 53°23' W 003°00'0 0.0
2015-Jan-23 21:32N 53°23' W 003°00'0 0.0
2015-Jan-23 20:32N 53°23' W 003°00'0 0.0
2015-Jan-23 19:32N 53°23' W 003°00'0 0.0
2015-Jan-23 18:26N 53°23' W 003°00'0 0.0
2015-Jan-23 15:26N 53°23' W 003°00'0 0.0
2015-Jan-23 13:33N 53°23' W 003°00'3 3.5
2015-Jan-23 12:33N 53°26' W 003°01'8 8.4
2015-Jan-23 11:33N 53°31' W 003°13'7 7.4
2015-Jan-23 10:33N 53°31' W 003°25'1110.7
2015-Jan-23 09:33N 53°30' W 003°43'  
2015-Jan-19 07:33N 39°04' W 009°58'5 4.4
2015-Jan-19 06:25N 38°59' W 009°57'11 3.8
2015-Jan-19 03:29N 38°48' W 009°57'4 4.0
2015-Jan-19 02:33N 38°45' W 009°57'5 4.6
2015-Jan-19 01:33N 38°40' W 009°56'5 5.1
2015-Jan-19 00:33N 38°35' W 009°55'6 5.9
2015-Jan-18 23:34N 38°29' W 009°53'6 6.3
2015-Jan-18 22:33N 38°23' W 009°51'7 7.3
2015-Jan-18 21:34N 38°16' W 009°49'8 7.8
2015-Jan-18 20:33N 38°08' W 009°47'19 8.9
2015-Jan-18 18:24N 37°50' W 009°42'8 9.4
2015-Jan-18 17:30N 37°41' W 009°40'  
Track history (hours):
 
Tides and Currents Weather Stations Pressure Air Temp Water Temp Dewpoint Dewpoint Depression Visibility Wind Speed Wind Dir Waves Ship Positions

Target

Last reported at 2015-Jan-27 18:23 UTC. Time now 2015-Jan-28 09:14 UTC.
Position N 58°36' W 006°37'.

Length 250 m; draft 7.9 m.

Type: Tanker. MMSI: 248057000.

Date/timePositionNaut miles runAvg speedWind from/ knotsBaromVisibWave heightAir tempDewpointWater temp
2015-Jan-27 18:23N 58°36' W 006°37'4411.0
2015-Jan-27 14:25N 58°04' W 007°32'135 7.4
2015-Jan-26 20:17N 55°50' W 006°58'6 7.5
2015-Jan-26 19:32N 55°46' W 006°51'9 8.8
2015-Jan-26 18:33N 55°41' W 006°40'1010.5
2015-Jan-26 17:33N 55°33' W 006°27'1110.8
2015-Jan-26 16:33N 55°26' W 006°13'10 9.5
2015-Jan-26 15:33N 55°21' W 005°59'9 8.9
2015-Jan-26 14:33N 55°14' W 005°50'9 8.9
2015-Jan-26 13:33N 55°06' W 005°40'12 9.2
2015-Jan-26 12:18N 54°57' W 005°29'7 9.1
2015-Jan-26 11:33N 54°51' W 005°22'1010.1
2015-Jan-26 10:33N 54°43' W 005°12'1111.2
2015-Jan-26 09:33N 54°33' W 005°04'1212.4
2015-Jan-26 08:33N 54°21' W 005°01'1312.5
2015-Jan-26 07:30N 54°08' W 004°57'4711.8
2015-Jan-26 03:31N 53°38' W 003°56'1711.6
2015-Jan-26 02:05N 53°33' W 003°29'611.3
2015-Jan-26 01:33N 53°32' W 003°19'8 8.4
2015-Jan-26 00:33N 53°30' W 003°05'5 4.6
2015-Jan-25 23:32N 53°26' W 003°01'3 2.9
2015-Jan-25 22:32N 53°23' W 003°00'0 0.0
2015-Jan-25 20:26N 53°23' W 003°00'0 0.0
2015-Jan-25 19:08N 53°23' W 003°00'0 0.0
2015-Jan-25 18:20N 53°23' W 003°00'0 0.0
2015-Jan-25 17:32N 53°23' W 003°00'0 0.0
2015-Jan-25 15:26N 53°23' W 003°00'0 0.0
2015-Jan-25 14:32N 53°23' W 003°00'0 0.0
2015-Jan-25 13:32N 53°23' W 003°00'0 0.0
2015-Jan-25 12:26N 53°23' W 003°00'0 0.0
2015-Jan-25 11:14N 53°23' W 003°00'0 0.0
2015-Jan-25 09:20N 53°23' W 003°00'0 0.0
2015-Jan-25 08:26N 53°23' W 003°00'0 0.0
2015-Jan-25 07:08N 53°23' W 003°00'0 0.0
2015-Jan-25 06:26N 53°23' W 003°00'0 0.0
2015-Jan-25 03:32N 53°23' W 003°00'0 0.0
2015-Jan-25 02:32N 53°23' W 003°00'0 0.0
2015-Jan-25 01:32N 53°23' W 003°00'0 0.0
2015-Jan-25 00:20N 53°23' W 003°00'0 0.0
2015-Jan-24 23:14N 53°23' W 003°00'0 0.0
2015-Jan-24 22:20N 53°23' W 003°00'0 0.0
2015-Jan-24 19:20N 53°23' W 003°00'0 0.0
2015-Jan-24 18:26N 53°23' W 003°00'0 0.0
2015-Jan-24 17:14N 53°23' W 003°00'0 0.0
2015-Jan-24 16:14N 53°23' W 003°00'0 0.0
2015-Jan-24 15:14N 53°23' W 003°00'0 0.0
2015-Jan-24 14:20N 53°23' W 003°00'0 0.0
2015-Jan-24 13:32N 53°23' W 003°00'0 0.0
2015-Jan-24 12:32N 53°23' W 003°00'0 0.0
2015-Jan-24 10:32N 53°23' W 003°00'0 0.0
2015-Jan-24 09:08N 53°23' W 003°00'0 0.0
2015-Jan-24 08:26N 53°23' W 003°00'0 0.0
2015-Jan-24 07:32N 53°23' W 003°00'0 0.0
2015-Jan-24 06:32N 53°23' W 003°00'0 0.0
2015-Jan-24 05:26N 53°23' W 003°00'0 0.0
2015-Jan-24 04:32N 53°23' W 003°00'0 0.0
2015-Jan-24 03:26N 53°23' W 003°00'0 0.0
2015-Jan-24 02:26N 53°23' W 003°00'0 0.0
2015-Jan-24 01:32N 53°23' W 003°00'0 0.0
2015-Jan-24 00:32N 53°23' W 003°00'0 0.0
2015-Jan-23 22:08N 53°23' W 003°00'0 0.0
2015-Jan-23 21:32N 53°23' W 003°00'0 0.0
2015-Jan-23 20:32N 53°23' W 003°00'0 0.0
2015-Jan-23 19:32N 53°23' W 003°00'0 0.0
2015-Jan-23 18:26N 53°23' W 003°00'0 0.0
2015-Jan-23 15:26N 53°23' W 003°00'0 0.0
2015-Jan-23 13:33N 53°23' W 003°00'3 3.5
2015-Jan-23 12:33N 53°26' W 003°01'8 8.4
2015-Jan-23 11:33N 53°31' W 003°13'7 7.4
2015-Jan-23 10:33N 53°31' W 003°25'1110.7
2015-Jan-23 09:33N 53°30' W 003°43'  
2015-Jan-19 07:33N 39°04' W 009°58'5 4.4
2015-Jan-19 06:25N 38°59' W 009°57'11 3.8
2015-Jan-19 03:29N 38°48' W 009°57'4 4.0
2015-Jan-19 02:33N 38°45' W 009°57'5 4.6
2015-Jan-19 01:33N 38°40' W 009°56'5 5.1
2015-Jan-19 00:33N 38°35' W 009°55'6 5.9
2015-Jan-18 23:34N 38°29' W 009°53'6 6.3
2015-Jan-18 22:33N 38°23' W 009°51'7 7.3
2015-Jan-18 21:34N 38°16' W 009°49'8 7.8
2015-Jan-18 20:33N 38°08' W 009°47'19 8.9
2015-Jan-18 18:24N 37°50' W 009°42'8 9.4
2015-Jan-18 17:30N 37°41' W 009°40'  

Dump ship's entire track history